Time;durP1;ratioP1;P1;durP2;ratioP2;P2;SDS_P1;SDS_P2;PMS_P1;PMS_P2;Temp;Humidity;BMP_temperature;BMP_pressure;BME280_temperature;BME280_humidity;BME280_pressure;Samples;Min_cycle;Max_cycle;Signal;HPM_P1;HPM_P2
2023/12/09 00:02:07;;;;;;;9.55;7.40;;;;;;;;;;5069388;28;20215;-76
2023/12/09 00:04:35;;;;;;;11.45;8.25;;;;;;;;;;5063617;28;20227;-78
2023/12/09 00:07:02;;;;;;;9.27;8.02;;;;;;;;;;5059056;28;20662;-78
2023/12/09 00:09:30;;;;;;;9.70;6.78;;;;;;;;;;5073318;28;20225;-78
2023/12/09 00:11:59;;;;;;;8.23;6.45;;;;;;;;;;5072651;28;20212;-78
2023/12/09 00:14:26;;;;;;;11.05;7.55;;;;;;;;;;5084476;28;20300;-78
2023/12/09 00:16:54;;;;;;;10.38;7.60;;;;;;;;;;5091214;28;20290;-79
2023/12/09 00:19:21;;;;;;;9.15;6.93;;;;;;;;;;5087210;28;20315;-79
2023/12/09 00:21:49;;;;;;;8.35;6.65;;;;;;;;;;5074496;28;20292;-79
2023/12/09 00:24:16;;;;;;;9.30;6.70;;;;;;;;;;5091241;28;20283;-79
2023/12/09 00:26:44;;;;;;;11.10;8.38;;;;;;;;;;5083795;28;20292;-79
2023/12/09 00:29:12;;;;;;;8.82;7.03;;;;;;;;;;5060153;28;20716;-78
2023/12/09 00:31:40;;;;;;;8.63;6.10;;;;;;;;;;5094711;28;20290;-79
2023/12/09 00:34:07;;;;;;;8.27;6.20;;;;;;;;;;5085748;28;20295;-78
2023/12/09 00:36:35;;;;;;;6.60;5.97;;;;;;;;;;5087037;28;20201;-77
2023/12/09 00:39:02;;;;;;;9.32;7.57;;;;;;;;;;5075827;28;20227;-79
2023/12/09 00:41:30;;;;;;;7.80;6.38;;;;;;;;;;5068862;28;20211;-79
2023/12/09 00:43:57;;;;;;;7.60;5.82;;;;;;;;;;5071613;28;20663;-78
2023/12/09 00:46:26;;;;;;;6.45;5.45;;;;;;;;;;5074608;28;20209;-77
2023/12/09 00:48:53;;;;;;;11.32;6.72;;;;;;;;;;5085598;28;20349;-79
2023/12/09 00:51:21;;;;;;;12.95;9.15;;;;;;;;;;5062005;28;20212;-77
2023/12/09 00:53:48;;;;;;;9.10;6.15;;;;;;;;;;5056357;28;20654;-79
2023/12/09 00:56:16;;;;;;;12.00;8.85;;;;;;;;;;5072358;28;20201;-79
2023/12/09 00:58:43;;;;;;;9.35;6.82;;;;;;;;;;5067098;28;20311;-78
2023/12/09 01:01:13;;;;;;;8.95;7.28;;;;;;;;;;5080455;28;20687;-79
2023/12/09 01:03:42;;;;;;;12.05;8.85;;;;;;;;;;5084187;28;20262;-78
2023/12/09 01:06:09;;;;;;;12.10;8.55;;;;;;;;;;5067191;28;20592;-78
2023/12/09 01:08:37;;;;;;;9.93;7.60;;;;;;;;;;5081425;28;20224;-78
2023/12/09 01:11:05;;;;;;;11.27;8.55;;;;;;;;;;5084104;28;20207;-79
2023/12/09 01:13:33;;;;;;;11.73;7.88;;;;;;;;;;5074373;28;20291;-78
2023/12/09 01:16:00;;;;;;;10.23;8.45;;;;;;;;;;5093979;28;20272;-78
2023/12/09 01:18:28;;;;;;;10.98;7.82;;;;;;;;;;5085500;28;20224;-79
2023/12/09 01:20:56;;;;;;;8.23;6.57;;;;;;;;;;5075208;28;20229;-79
2023/12/09 01:23:24;;;;;;;8.98;6.72;;;;;;;;;;5095932;28;20287;-79
2023/12/09 01:25:52;;;;;;;10.88;7.88;;;;;;;;;;5072929;28;20212;-78
2023/12/09 01:28:19;;;;;;;10.55;8.00;;;;;;;;;;5070867;28;20300;-79
2023/12/09 01:30:47;;;;;;;6.35;5.75;;;;;;;;;;5085196;28;20210;-79
2023/12/09 01:33:14;;;;;;;12.45;9.88;;;;;;;;;;5075095;28;20206;-78
2023/12/09 01:35:42;;;;;;;11.32;8.07;;;;;;;;;;5091862;28;20215;-79
2023/12/09 01:38:10;;;;;;;7.93;6.95;;;;;;;;;;5082530;28;20205;-78
2023/12/09 01:40:38;;;;;;;7.30;6.38;;;;;;;;;;5075234;28;20229;-78
2023/12/09 01:43:10;;;;;;;6.68;5.30;;;;;;;;;;5092174;28;20206;-78
2023/12/09 01:45:37;;;;;;;7.97;6.45;;;;;;;;;;5081389;28;20200;-78
2023/12/09 01:48:05;;;;;;;4.88;3.88;;;;;;;;;;5067979;28;20232;-78
2023/12/09 01:50:33;;;;;;;4.30;2.65;;;;;;;;;;5069606;28;20638;-78
2023/12/09 01:53:00;;;;;;;3.35;3.05;;;;;;;;;;5093691;28;20295;-79
2023/12/09 01:55:29;;;;;;;6.32;5.47;;;;;;;;;;5082175;28;20288;-77
2023/12/09 01:57:57;;;;;;;8.23;6.32;;;;;;;;;;5090831;28;20575;-77
2023/12/09 02:00:24;;;;;;;7.47;6.45;;;;;;;;;;5080550;28;20598;-77
2023/12/09 02:02:52;;;;;;;9.38;6.53;;;;;;;;;;5089512;28;20208;-79
2023/12/09 02:05:19;;;;;;;8.35;7.28;;;;;;;;;;5087303;28;20207;-79
2023/12/09 02:07:47;;;;;;;9.40;6.65;;;;;;;;;;5089591;28;20215;-80
2023/12/09 02:10:14;;;;;;;8.73;6.80;;;;;;;;;;5065532;28;20221;-79
2023/12/09 02:12:48;;;;;;;8.32;6.72;;;;;;;;;;5076707;28;20211;-79
2023/12/09 02:15:23;;;;;;;11.30;8.73;;;;;;;;;;5070022;28;20258;-77
2023/12/09 02:17:55;;;;;;;9.43;7.28;;;;;;;;;;5075633;28;20651;-79
2023/12/09 02:20:23;;;;;;;9.35;7.03;;;;;;;;;;5075456;28;20224;-78
2023/12/09 02:22:50;;;;;;;7.85;7.00;;;;;;;;;;5079514;28;20220;-77
2023/12/09 02:25:19;;;;;;;11.30;7.35;;;;;;;;;;5073881;28;20201;-78
2023/12/09 02:27:53;;;;;;;11.02;8.73;;;;;;;;;;5088886;28;20579;-77
2023/12/09 02:30:24;;;;;;;8.60;6.18;;;;;;;;;;5074742;28;20311;-77
2023/12/09 02:32:53;;;;;;;7.00;5.32;;;;;;;;;;5078137;28;20201;-79
2023/12/09 02:35:21;;;;;;;7.13;5.60;;;;;;;;;;5085849;28;20295;-79
2023/12/09 02:37:49;;;;;;;6.63;5.03;;;;;;;;;;5091428;28;20288;-78
2023/12/09 02:40:18;;;;;;;7.45;6.10;;;;;;;;;;5065711;28;20707;-76
2023/12/09 02:42:46;;;;;;;7.78;6.82;;;;;;;;;;5066903;28;20237;-78
2023/12/09 02:45:14;;;;;;;8.73;7.40;;;;;;;;;;5077162;28;20221;-78
2023/12/09 02:47:41;;;;;;;8.45;7.15;;;;;;;;;;5090386;28;20204;-78
2023/12/09 02:50:09;;;;;;;12.07;7.50;;;;;;;;;;5089426;28;20291;-77
2023/12/09 02:52:37;;;;;;;8.40;6.47;;;;;;;;;;5086833;28;20359;-77
2023/12/09 02:55:05;;;;;;;8.55;6.85;;;;;;;;;;5074615;28;20201;-79
2023/12/09 02:57:34;;;;;;;5.40;4.53;;;;;;;;;;5072703;28;20288;-77
2023/12/09 03:00:01;;;;;;;7.63;5.93;;;;;;;;;;5085694;28;20708;-79
2023/12/09 03:02:29;;;;;;;6.38;5.00;;;;;;;;;;5086294;28;20248;-78
2023/12/09 03:04:57;;;;;;;4.88;4.45;;;;;;;;;;5086143;28;20204;-79
2023/12/09 03:07:24;;;;;;;6.28;5.03;;;;;;;;;;5074812;28;20244;-78
2023/12/09 03:09:52;;;;;;;8.27;6.30;;;;;;;;;;5086888;28;20229;-78
2023/12/09 03:12:19;;;;;;;6.55;5.82;;;;;;;;;;5090447;28;20207;-78
2023/12/09 03:14:48;;;;;;;7.40;6.10;;;;;;;;;;5085382;28;20192;-78
2023/12/09 03:17:15;;;;;;;7.60;6.78;;;;;;;;;;5089329;28;20727;-78
2023/12/09 03:19:43;;;;;;;7.15;6.45;;;;;;;;;;5087647;28;20307;-77
2023/12/09 03:22:10;;;;;;;6.78;5.25;;;;;;;;;;5074328;28;20323;-78
2023/12/09 03:24:38;;;;;;;7.40;6.15;;;;;;;;;;5076285;28;20311;-78
2023/12/09 03:27:06;;;;;;;5.75;5.20;;;;;;;;;;5084752;28;20211;-78
2023/12/09 03:29:33;;;;;;;4.93;4.43;;;;;;;;;;5069264;28;20229;-79
2023/12/09 03:32:02;;;;;;;3.28;2.97;;;;;;;;;;5091086;28;20298;-78
2023/12/09 03:34:29;;;;;;;3.55;3.15;;;;;;;;;;5089919;28;20204;-78
2023/12/09 03:36:57;;;;;;;2.85;2.28;;;;;;;;;;5079138;28;20208;-78
2023/12/09 03:39:25;;;;;;;2.72;2.33;;;;;;;;;;5068974;28;20231;-78
2023/12/09 03:41:52;;;;;;;1.95;1.75;;;;;;;;;;5078629;28;20223;-78
2023/12/09 03:44:20;;;;;;;2.35;1.92;;;;;;;;;;5090188;28;20204;-78
2023/12/09 03:46:47;;;;;;;1.55;1.45;;;;;;;;;;5081556;28;20211;-78
2023/12/09 03:49:16;;;;;;;3.13;2.25;;;;;;;;;;5087414;28;20248;-78
2023/12/09 03:51:43;;;;;;;2.83;1.80;;;;;;;;;;5075478;28;20193;-77
2023/12/09 03:54:11;;;;;;;2.20;2.00;;;;;;;;;;5075744;28;20598;-79
2023/12/09 03:56:38;;;;;;;3.13;1.75;;;;;;;;;;5084050;28;20204;-79
2023/12/09 03:59:06;;;;;;;3.78;3.47;;;;;;;;;;5086484;28;20225;-77
2023/12/09 04:01:33;;;;;;;5.43;4.93;;;;;;;;;;5057598;28;20218;-79
2023/12/09 04:04:01;;;;;;;5.95;5.25;;;;;;;;;;5080160;28;20260;-79
2023/12/09 04:06:30;;;;;;;8.68;7.22;;;;;;;;;;5075501;28;20219;-79
2023/12/09 04:08:57;;;;;;;6.00;5.40;;;;;;;;;;5070242;28;20228;-79
2023/12/09 04:11:24;;;;;;;8.18;5.85;;;;;;;;;;5084340;28;20202;-78
2023/12/09 04:13:52;;;;;;;6.20;5.20;;;;;;;;;;5064571;28;20586;-78
2023/12/09 04:16:19;;;;;;;5.90;5.32;;;;;;;;;;5075383;28;20199;-78
2023/12/09 04:18:47;;;;;;;6.65;5.82;;;;;;;;;;5067809;28;20217;-79
2023/12/09 04:21:14;;;;;;;5.55;4.57;;;;;;;;;;5080041;28;20212;-78
2023/12/09 04:23:44;;;;;;;4.10;3.70;;;;;;;;;;5080963;28;20299;-79
2023/12/09 04:26:12;;;;;;;4.35;3.53;;;;;;;;;;5062559;28;20197;-79
2023/12/09 04:28:39;;;;;;;2.88;2.58;;;;;;;;;;5064925;28;20309;-78
2023/12/09 04:31:06;;;;;;;2.55;2.35;;;;;;;;;;5070433;28;20358;-76
2023/12/09 04:33:34;;;;;;;3.03;2.40;;;;;;;;;;5080155;28;20276;-80
2023/12/09 04:36:02;;;;;;;2.83;2.63;;;;;;;;;;5075641;28;20604;-78
2023/12/09 04:38:30;;;;;;;3.30;2.45;;;;;;;;;;5084287;28;20247;-80
2023/12/09 04:40:59;;;;;;;2.85;2.33;;;;;;;;;;5080229;28;20208;-79
2023/12/09 04:43:27;;;;;;;2.30;1.90;;;;;;;;;;5086820;28;20307;-77
2023/12/09 04:45:54;;;;;;;3.10;2.42;;;;;;;;;;5085856;28;20232;-79
2023/12/09 04:48:21;;;;;;;2.97;2.78;;;;;;;;;;5077775;28;20211;-79
2023/12/09 04:50:49;;;;;;;6.35;4.45;;;;;;;;;;5067722;28;20348;-78
2023/12/09 04:53:17;;;;;;;5.55;4.13;;;;;;;;;;5085610;28;20637;-79
2023/12/09 04:55:44;;;;;;;3.90;3.58;;;;;;;;;;5081168;28;20299;-80
2023/12/09 04:58:13;;;;;;;6.55;5.30;;;;;;;;;;5074953;28;20568;-79
2023/12/09 05:00:40;;;;;;;4.80;4.25;;;;;;;;;;5070238;28;20205;-78
2023/12/09 05:03:08;;;;;;;5.05;4.50;;;;;;;;;;5087926;28;20250;-77
2023/12/09 05:05:35;;;;;;;5.07;4.10;;;;;;;;;;5085988;28;20308;-79
2023/12/09 05:08:03;;;;;;;3.92;3.47;;;;;;;;;;5080356;28;20215;-79
2023/12/09 05:10:30;;;;;;;6.63;5.90;;;;;;;;;;5089118;28;20220;-79
2023/12/09 05:12:58;;;;;;;5.75;5.25;;;;;;;;;;5081217;28;20550;-78
2023/12/09 05:15:27;;;;;;;8.15;5.10;;;;;;;;;;5089259;28;20299;-79
2023/12/09 05:17:56;;;;;;;6.22;5.45;;;;;;;;;;5090593;28;20200;-80
2023/12/09 05:20:23;;;;;;;5.93;4.75;;;;;;;;;;5084396;28;20229;-79
2023/12/09 05:22:51;;;;;;;4.47;3.80;;;;;;;;;;5081374;28;20319;-79
2023/12/09 05:25:19;;;;;;;4.72;4.00;;;;;;;;;;5080807;28;20219;-79
2023/12/09 05:27:47;;;;;;;4.75;4.15;;;;;;;;;;5089449;28;20677;-80
2023/12/09 05:30:14;;;;;;;5.70;4.88;;;;;;;;;;5082447;28;20252;-80
2023/12/09 05:32:43;;;;;;;5.40;4.78;;;;;;;;;;5071471;28;20718;-79
2023/12/09 05:35:11;;;;;;;5.03;4.53;;;;;;;;;;5078688;28;20197;-78
2023/12/09 05:37:38;;;;;;;4.78;4.18;;;;;;;;;;5079930;28;20205;-79
2023/12/09 05:40:08;;;;;;;4.78;4.38;;;;;;;;;;5084408;28;20216;-78
2023/12/09 05:42:35;;;;;;;5.63;4.38;;;;;;;;;;5082938;28;20224;-78
2023/12/09 05:45:03;;;;;;;4.18;3.55;;;;;;;;;;5072955;28;20213;-80
2023/12/09 05:47:31;;;;;;;6.70;4.82;;;;;;;;;;5078066;28;20287;-79
2023/12/09 05:49:59;;;;;;;3.92;3.40;;;;;;;;;;5085800;28;20228;-79
2023/12/09 05:52:27;;;;;;;4.10;3.45;;;;;;;;;;5080826;28;20295;-80
2023/12/09 05:54:54;;;;;;;5.85;4.00;;;;;;;;;;5083511;28;20574;-79
2023/12/09 05:57:22;;;;;;;7.20;3.60;;;;;;;;;;5089015;28;20200;-79
2023/12/09 05:59:49;;;;;;;3.45;3.15;;;;;;;;;;5074724;28;20762;-80
2023/12/09 06:02:16;;;;;;;2.20;2.00;;;;;;;;;;5077134;28;20299;-79
2023/12/09 06:04:44;;;;;;;2.63;2.42;;;;;;;;;;5080524;28;20224;-78
2023/12/09 06:07:12;;;;;;;3.92;2.92;;;;;;;;;;5079480;28;20295;-79
2023/12/09 06:09:39;;;;;;;3.95;3.63;;;;;;;;;;5078856;28;20706;-77
2023/12/09 06:12:08;;;;;;;3.95;3.17;;;;;;;;;;5080777;28;20281;-80
2023/12/09 06:14:35;;;;;;;4.85;4.22;;;;;;;;;;5070647;28;20223;-78
2023/12/09 06:17:03;;;;;;;3.47;3.17;;;;;;;;;;5077001;28;20201;-79
2023/12/09 06:19:31;;;;;;;3.38;2.35;;;;;;;;;;5076920;28;20684;-79
2023/12/09 06:21:58;;;;;;;2.80;2.50;;;;;;;;;;5082280;28;20197;-79
2023/12/09 06:24:27;;;;;;;2.97;2.60;;;;;;;;;;5077441;28;20710;-79
2023/12/09 06:26:54;;;;;;;2.53;2.33;;;;;;;;;;5083867;28;20204;-78
2023/12/09 06:29:22;;;;;;;2.80;2.10;;;;;;;;;;5086999;28;20311;-80
2023/12/09 06:31:49;;;;;;;2.30;2.10;;;;;;;;;;5068444;28;20204;-79
2023/12/09 06:34:16;;;;;;;2.25;1.98;;;;;;;;;;5082299;28;20280;-79
2023/12/09 06:36:44;;;;;;;3.10;2.40;;;;;;;;;;5076736;28;20691;-78
2023/12/09 06:39:11;;;;;;;2.28;2.08;;;;;;;;;;5074187;28;20223;-79
2023/12/09 06:41:42;;;;;;;4.90;2.45;;;;;;;;;;5076042;28;20292;-79
2023/12/09 06:44:10;;;;;;;3.47;2.78;;;;;;;;;;5071032;28;20235;-81
2023/12/09 06:46:38;;;;;;;2.80;2.15;;;;;;;;;;5072856;28;20205;-80
2023/12/09 06:49:06;;;;;;;2.85;2.33;;;;;;;;;;5075664;28;20217;-79
2023/12/09 06:51:33;;;;;;;2.83;2.58;;;;;;;;;;5074476;28;20200;-79
2023/12/09 06:54:01;;;;;;;4.68;3.03;;;;;;;;;;5072747;28;20677;-80
2023/12/09 06:56:29;;;;;;;3.55;3.25;;;;;;;;;;5083976;28;20204;-79
2023/12/09 06:58:57;;;;;;;4.53;3.25;;;;;;;;;;5073149;28;20221;-78
2023/12/09 07:01:27;;;;;;;3.63;2.95;;;;;;;;;;5067852;28;20223;-79
2023/12/09 07:03:54;;;;;;;3.58;2.65;;;;;;;;;;5085298;28;20250;-80
2023/12/09 07:06:23;;;;;;;3.88;3.10;;;;;;;;;;5092307;28;20222;-79
2023/12/09 07:08:50;;;;;;;4.22;3.45;;;;;;;;;;5069452;28;20673;-80
2023/12/09 07:11:18;;;;;;;3.15;2.88;;;;;;;;;;5083314;28;20283;-79
2023/12/09 07:13:46;;;;;;;3.00;2.70;;;;;;;;;;5078888;28;20200;-79
2023/12/09 07:16:15;;;;;;;4.70;3.78;;;;;;;;;;5075964;28;20201;-78
2023/12/09 07:18:46;;;;;;;3.53;2.15;;;;;;;;;;5064782;28;20275;-79
2023/12/09 07:21:13;;;;;;;2.95;2.65;;;;;;;;;;5072246;28;20688;-79
2023/12/09 07:23:41;;;;;;;3.53;2.97;;;;;;;;;;5072200;28;20292;-78
2023/12/09 07:26:09;;;;;;;3.40;3.10;;;;;;;;;;5073475;28;20200;-79
2023/12/09 07:28:36;;;;;;;4.57;3.50;;;;;;;;;;5071433;28;20581;-80
2023/12/09 07:31:04;;;;;;;4.93;4.20;;;;;;;;;;5066998;28;20207;-79
2023/12/09 07:33:33;;;;;;;5.18;4.53;;;;;;;;;;5087315;28;20570;-79
2023/12/09 07:36:00;;;;;;;6.13;5.50;;;;;;;;;;5077198;28;20201;-79
2023/12/09 07:38:28;;;;;;;5.72;4.90;;;;;;;;;;5092859;28;20234;-79
2023/12/09 07:40:55;;;;;;;6.13;5.47;;;;;;;;;;5079570;28;20645;-77
2023/12/09 07:43:23;;;;;;;7.55;5.65;;;;;;;;;;5079394;28;20311;-79
2023/12/09 07:45:50;;;;;;;7.32;6.70;;;;;;;;;;5080921;28;20216;-80
2023/12/09 07:48:18;;;;;;;9.45;6.88;;;;;;;;;;5082201;28;20272;-80
2023/12/09 07:50:47;;;;;;;9.43;7.75;;;;;;;;;;5067927;28;20253;-78
2023/12/09 07:53:14;;;;;;;12.20;8.05;;;;;;;;;;5064454;28;20197;-79
2023/12/09 07:55:41;;;;;;;10.23;6.40;;;;;;;;;;5089021;28;20644;-79
2023/12/09 07:58:09;;;;;;;7.53;6.25;;;;;;;;;;5078332;28;20217;-80
2023/12/09 08:00:37;;;;;;;8.25;6.28;;;;;;;;;;5062771;28;20298;-79
2023/12/09 08:03:05;;;;;;;7.30;6.32;;;;;;;;;;5069698;28;20200;-80
2023/12/09 08:05:34;;;;;;;7.57;5.63;;;;;;;;;;5065986;28;20229;-77
2023/12/09 08:08:03;;;;;;;5.13;4.63;;;;;;;;;;5090711;28;20204;-79
2023/12/09 08:10:30;;;;;;;7.38;6.03;;;;;;;;;;5095610;28;20220;-80
2023/12/09 08:12:58;;;;;;;7.05;5.35;;;;;;;;;;5068530;28;20200;-81
2023/12/09 08:15:25;;;;;;;6.05;5.05;;;;;;;;;;5086322;28;20215;-78
2023/12/09 08:17:53;;;;;;;8.10;5.85;;;;;;;;;;5077616;28;20264;-80
2023/12/09 08:20:20;;;;;;;5.80;4.88;;;;;;;;;;5077778;28;20221;-79
2023/12/09 08:22:48;;;;;;;4.68;4.22;;;;;;;;;;5086802;28;20651;-78
2023/12/09 08:25:17;;;;;;;6.15;5.50;;;;;;;;;;5088469;28;20311;-79
2023/12/09 08:27:45;;;;;;;5.50;4.82;;;;;;;;;;5085829;28;20239;-80
2023/12/09 08:30:13;;;;;;;5.15;4.65;;;;;;;;;;5094960;28;20220;-78
2023/12/09 08:32:41;;;;;;;7.10;4.82;;;;;;;;;;5083482;28;20203;-79
2023/12/09 08:35:10;;;;;;;5.40;4.15;;;;;;;;;;5069491;28;20211;-80
2023/12/09 08:37:38;;;;;;;4.70;4.22;;;;;;;;;;5055205;28;20204;-79
2023/12/09 08:40:10;;;;;;;5.95;4.70;;;;;;;;;;5069351;28;20231;-80
2023/12/09 08:42:40;;;;;;;7.28;6.35;;;;;;;;;;5084781;28;20589;-80
2023/12/09 08:45:10;;;;;;;6.82;5.03;;;;;;;;;;5094891;28;20230;-79
2023/12/09 08:47:38;;;;;;;6.22;5.40;;;;;;;;;;5080292;28;20596;-77
2023/12/09 08:50:08;;;;;;;5.00;4.45;;;;;;;;;;5088761;28;20761;-79
2023/12/09 08:52:35;;;;;;;4.93;4.50;;;;;;;;;;5082233;28;20204;-80
2023/12/09 08:55:03;;;;;;;5.45;4.60;;;;;;;;;;5083726;28;20197;-79
2023/12/09 08:57:30;;;;;;;6.07;5.57;;;;;;;;;;5074847;28;20211;-79
2023/12/09 08:59:59;;;;;;;4.70;4.30;;;;;;;;;;5093412;28;20232;-80
2023/12/09 09:02:27;;;;;;;4.25;3.83;;;;;;;;;;5068955;28;20231;-79
2023/12/09 09:04:55;;;;;;;5.85;4.53;;;;;;;;;;5081792;28;20277;-80
2023/12/09 09:07:22;;;;;;;5.35;4.85;;;;;;;;;;5085317;28;20217;-78
2023/12/09 09:09:50;;;;;;;5.28;4.78;;;;;;;;;;5083131;28;20770;-80
2023/12/09 09:12:17;;;;;;;5.22;4.72;;;;;;;;;;5079337;28;20295;-79
2023/12/09 09:14:44;;;;;;;5.25;4.53;;;;;;;;;;5092647;28;20639;-78
2023/12/09 09:17:16;;;;;;;6.35;5.20;;;;;;;;;;5080484;28;20641;-80
2023/12/09 09:19:43;;;;;;;4.47;4.03;;;;;;;;;;5068634;28;20293;-80
2023/12/09 09:22:11;;;;;;;5.38;4.85;;;;;;;;;;5077359;28;20291;-78
2023/12/09 09:24:38;;;;;;;9.20;6.45;;;;;;;;;;5074411;28;20319;-80
2023/12/09 09:27:06;;;;;;;8.52;6.63;;;;;;;;;;5082560;28;20230;-79
2023/12/09 09:29:33;;;;;;;6.90;5.63;;;;;;;;;;5085368;28;20718;-80
2023/12/09 09:32:01;;;;;;;4.55;4.15;;;;;;;;;;5069691;28;20209;-78
2023/12/09 09:34:30;;;;;;;5.85;5.10;;;;;;;;;;5082404;28;20813;-80
2023/12/09 09:36:57;;;;;;;5.95;5.43;;;;;;;;;;5080257;28;20201;-79
2023/12/09 09:39:25;;;;;;;8.80;6.30;;;;;;;;;;5074497;28;20316;-79
2023/12/09 09:42:00;;;;;;;8.13;6.53;;;;;;;;;;5074746;28;20223;-79
2023/12/09 09:44:28;;;;;;;4.88;4.38;;;;;;;;;;5060430;28;20200;-78
2023/12/09 09:46:58;;;;;;;7.03;4.97;;;;;;;;;;5076177;28;20297;-79
2023/12/09 09:49:26;;;;;;;5.95;5.38;;;;;;;;;;5077575;28;20252;-82
2023/12/09 09:51:58;;;;;;;7.90;6.38;;;;;;;;;;5091676;28;20290;-80
2023/12/09 09:54:29;;;;;;;9.55;6.18;;;;;;;;;;5080454;28;20216;-78
2023/12/09 09:56:58;;;;;;;5.47;4.97;;;;;;;;;;5082075;28;20197;-80
2023/12/09 09:59:26;;;;;;;4.60;4.20;;;;;;;;;;5077447;28;20221;-80
2023/12/09 10:01:54;;;;;;;5.75;5.05;;;;;;;;;;5084149;28;20212;-80
2023/12/09 10:04:21;;;;;;;7.85;5.70;;;;;;;;;;5097894;28;20196;-78
2023/12/09 10:06:50;;;;;;;7.10;5.63;;;;;;;;;;5094826;28;20239;-80
2023/12/09 10:09:18;;;;;;;7.63;6.07;;;;;;;;;;5082675;28;20255;-79
2023/12/09 10:11:46;;;;;;;6.65;4.82;;;;;;;;;;5081364;28;20205;-80
2023/12/09 10:14:14;;;;;;;5.57;4.68;;;;;;;;;;5082454;28;20304;-78
2023/12/09 10:16:42;;;;;;;4.70;4.20;;;;;;;;;;5072178;28;20288;-79
2023/12/09 10:19:10;;;;;;;6.82;4.97;;;;;;;;;;5088728;28;20795;-79
2023/12/09 10:21:38;;;;;;;4.75;4.28;;;;;;;;;;5096888;28;20287;-79
2023/12/09 10:24:06;;;;;;;5.78;5.18;;;;;;;;;;5078391;28;20229;-79
2023/12/09 10:26:35;;;;;;;6.07;4.35;;;;;;;;;;5065259;28;20229;-78
2023/12/09 10:29:03;;;;;;;4.88;4.07;;;;;;;;;;5062762;28;20236;-80
2023/12/09 10:31:34;;;;;;;5.85;4.85;;;;;;;;;;5063663;28;20213;-80
2023/12/09 10:34:01;;;;;;;5.68;4.22;;;;;;;;;;5080854;28;20215;-81
2023/12/09 10:36:29;;;;;;;4.18;3.78;;;;;;;;;;5085422;28;20208;-80
2023/12/09 10:38:57;;;;;;;4.05;3.53;;;;;;;;;;5087885;28;20692;-79
2023/12/09 10:41:26;;;;;;;4.78;3.83;;;;;;;;;;5074451;28;20211;-79
2023/12/09 10:43:56;;;;;;;3.15;2.85;;;;;;;;;;5089255;28;20197;-80
2023/12/09 10:46:23;;;;;;;2.53;2.33;;;;;;;;;;5081878;28;20227;-79
2023/12/09 10:48:51;;;;;;;2.90;2.70;;;;;;;;;;5086399;28;20684;-79
2023/12/09 10:51:19;;;;;;;2.03;1.92;;;;;;;;;;5077149;28;20217;-78
2023/12/09 10:53:47;;;;;;;2.17;1.98;;;;;;;;;;5077303;28;20209;-80
2023/12/09 10:56:14;;;;;;;2.00;1.80;;;;;;;;;;5087801;28;20196;-79
2023/12/09 10:58:43;;;;;;;1.88;1.77;;;;;;;;;;5091234;28;20228;-80
2023/12/09 11:01:13;;;;;;;1.67;1.58;;;;;;;;;;5056904;28;20217;-82
2023/12/09 11:03:40;;;;;;;1.90;1.70;;;;;;;;;;5092383;28;20588;-80
2023/12/09 11:06:09;;;;;;;3.05;2.75;;;;;;;;;;5097358;28;20259;-82
2023/12/09 11:08:38;;;;;;;2.22;2.03;;;;;;;;;;5072407;28;20239;-79
2023/12/09 11:11:07;;;;;;;2.40;2.20;;;;;;;;;;5077226;28;20626;-81
2023/12/09 11:13:35;;;;;;;2.80;2.55;;;;;;;;;;5077081;28;20208;-81
2023/12/09 11:16:11;;;;;;;3.35;3.05;;;;;;;;;;5064835;28;20740;-81
2023/12/09 11:18:50;;;;;;;3.83;3.38;;;;;;;;;;5057318;28;20308;-81
2023/12/09 11:21:18;;;;;;;4.63;3.67;;;;;;;;;;5058047;28;20202;-81
2023/12/09 11:23:49;;;;;;;5.18;3.15;;;;;;;;;;5070397;28;20645;-81
2023/12/09 11:26:19;;;;;;;4.70;3.25;;;;;;;;;;5084474;28;20261;-81
2023/12/09 11:29:04;;;;;;;4.53;3.60;;;;;;;;;;5097891;28;20254;-80
2023/12/09 11:31:41;;;;;;;4.70;4.00;;;;;;;;;;5083066;28;20671;-81
2023/12/09 11:34:11;;;;;;;3.58;3.25;;;;;;;;;;5082583;28;20196;-80
2023/12/09 11:36:39;;;;;;;4.97;3.72;;;;;;;;;;5097516;28;20216;-78
2023/12/09 11:39:09;;;;;;;4.97;4.57;;;;;;;;;;5069599;28;20316;-79
2023/12/09 11:41:37;;;;;;;7.78;4.82;;;;;;;;;;5077673;28;20228;-78
2023/12/09 11:44:06;;;;;;;5.97;3.95;;;;;;;;;;5089920;28;20712;-81
2023/12/09 11:46:34;;;;;;;4.78;4.10;;;;;;;;;;5082576;28;20257;-79
2023/12/09 11:49:04;;;;;;;4.57;4.13;;;;;;;;;;5073491;28;20316;-81
2023/12/09 11:51:34;;;;;;;5.47;3.85;;;;;;;;;;5057444;28;20211;-81
2023/12/09 11:54:03;;;;;;;4.20;3.63;;;;;;;;;;5082546;28;20303;-80
2023/12/09 11:56:31;;;;;;;5.10;3.40;;;;;;;;;;5088462;28;20280;-81
2023/12/09 11:58:58;;;;;;;4.72;3.80;;;;;;;;;;5094712;28;20220;-81
2023/12/09 12:01:27;;;;;;;5.50;3.70;;;;;;;;;;5094231;28;20263;-80
2023/12/09 12:03:55;;;;;;;3.30;3.00;;;;;;;;;;5096392;28;20253;-81
2023/12/09 12:06:24;;;;;;;3.40;3.10;;;;;;;;;;5079990;28;20247;-80
2023/12/09 12:08:53;;;;;;;4.68;3.33;;;;;;;;;;5079069;28;20220;-81
2023/12/09 12:11:23;;;;;;;4.07;3.67;;;;;;;;;;5069174;28;20706;-80
2023/12/09 12:13:51;;;;;;;4.72;3.45;;;;;;;;;;5083204;28;20244;-81
2023/12/09 12:16:19;;;;;;;3.53;3.22;;;;;;;;;;5094896;28;20234;-81
2023/12/09 12:18:47;;;;;;;5.63;3.75;;;;;;;;;;5077716;28;20221;-82
2023/12/09 12:21:14;;;;;;;5.15;4.05;;;;;;;;;;5090686;28;20204;-80
2023/12/09 12:23:43;;;;;;;7.45;4.10;;;;;;;;;;5097193;28;20239;-81
2023/12/09 12:26:13;;;;;;;5.95;4.00;;;;;;;;;;5097083;28;20289;-80
2023/12/09 12:28:40;;;;;;;5.13;3.58;;;;;;;;;;5077355;28;20259;-81
2023/12/09 12:31:08;;;;;;;6.38;3.50;;;;;;;;;;5078531;28;20209;-79
2023/12/09 12:33:36;;;;;;;5.40;3.13;;;;;;;;;;5077574;28;20212;-81
2023/12/09 12:36:05;;;;;;;3.78;3.33;;;;;;;;;;5088228;28;20243;-80
2023/12/09 12:38:34;;;;;;;4.60;4.00;;;;;;;;;;5081816;28;20730;-81
2023/12/09 12:41:03;;;;;;;4.15;3.85;;;;;;;;;;5077579;28;20232;-82
2023/12/09 12:43:33;;;;;;;4.82;3.75;;;;;;;;;;5091309;28;20208;-82
2023/12/09 12:46:01;;;;;;;4.22;3.15;;;;;;;;;;5078035;28;20204;-80
2023/12/09 12:48:29;;;;;;;5.38;4.32;;;;;;;;;;5075775;28;20252;-80
2023/12/09 12:50:57;;;;;;;4.80;3.95;;;;;;;;;;5077832;28;20235;-81
2023/12/09 12:53:26;;;;;;;4.53;3.50;;;;;;;;;;5096144;28;20239;-80
2023/12/09 12:55:54;;;;;;;4.95;3.75;;;;;;;;;;5056370;28;20233;-81
2023/12/09 12:58:23;;;;;;;4.57;4.13;;;;;;;;;;5074919;28;20272;-80
2023/12/09 13:00:52;;;;;;;4.07;3.20;;;;;;;;;;5077141;28;20640;-81
2023/12/09 13:03:20;;;;;;;2.90;2.60;;;;;;;;;;5086864;28;20197;-81
2023/12/09 13:05:47;;;;;;;6.72;3.30;;;;;;;;;;5076879;28;20209;-81
2023/12/09 13:08:15;;;;;;;3.85;2.35;;;;;;;;;;5078173;28;20224;-80
2023/12/09 13:10:43;;;;;;;5.95;4.55;;;;;;;;;;5075719;28;20209;-81
2023/12/09 13:13:10;;;;;;;8.18;5.38;;;;;;;;;;5072610;28;20688;-80
2023/12/09 13:15:39;;;;;;;5.15;3.75;;;;;;;;;;5074618;28;20555;-81
2023/12/09 13:18:07;;;;;;;17.83;14.02;;;;;;;;;;5058302;28;20641;-81
2023/12/09 13:20:34;;;;;;;24.52;16.42;;;;;;;;;;5083889;28;20204;-79
2023/12/09 13:23:02;;;;;;;14.05;9.30;;;;;;;;;;5079570;28;20197;-81
2023/12/09 13:25:31;;;;;;;8.88;6.97;;;;;;;;;;5079889;28;20664;-81
2023/12/09 13:27:58;;;;;;;6.55;5.32;;;;;;;;;;5096101;28;20256;-81
2023/12/09 13:30:27;;;;;;;4.75;4.03;;;;;;;;;;5090852;28;20306;-81
2023/12/09 13:33:00;;;;;;;3.88;3.35;;;;;;;;;;5085504;28;20209;-80
2023/12/09 13:35:28;;;;;;;3.00;2.67;;;;;;;;;;5073820;28;20200;-80
2023/12/09 13:37:56;;;;;;;4.95;3.30;;;;;;;;;;5082735;28;20204;-81
2023/12/09 13:40:24;;;;;;;4.07;3.38;;;;;;;;;;5080043;28;20213;-81
2023/12/09 13:42:52;;;;;;;4.95;3.10;;;;;;;;;;5091363;28;20702;-81
2023/12/09 13:45:21;;;;;;;3.50;2.90;;;;;;;;;;5092347;28;20292;-81
2023/12/09 13:47:49;;;;;;;4.10;3.03;;;;;;;;;;5085307;28;20221;-82
2023/12/09 13:50:18;;;;;;;3.03;2.47;;;;;;;;;;5086775;28;20240;-81
2023/12/09 13:52:45;;;;;;;3.30;3.00;;;;;;;;;;5080560;28;20213;-81
2023/12/09 13:55:14;;;;;;;2.22;2.08;;;;;;;;;;5073760;28;20229;-80
2023/12/09 13:57:41;;;;;;;5.38;3.08;;;;;;;;;;5086244;28;20264;-82
2023/12/09 14:00:11;;;;;;;3.90;2.28;;;;;;;;;;5096290;28;20225;-80
2023/12/09 14:02:39;;;;;;;4.40;2.72;;;;;;;;;;5078595;28;20602;-81
2023/12/09 14:05:09;;;;;;;3.80;2.10;;;;;;;;;;5096546;28;20991;-81
2023/12/09 14:07:38;;;;;;;2.83;2.60;;;;;;;;;;5078700;28;20224;-82
2023/12/09 14:10:08;;;;;;;3.60;2.47;;;;;;;;;;5079319;28;20224;-81
2023/12/09 14:12:36;;;;;;;3.22;2.92;;;;;;;;;;5081046;28;20231;-82
2023/12/09 14:15:04;;;;;;;3.83;2.60;;;;;;;;;;5094854;28;20574;-81
2023/12/09 14:17:31;;;;;;;4.65;3.20;;;;;;;;;;5100029;28;20193;-79
2023/12/09 14:19:59;;;;;;;3.53;3.00;;;;;;;;;;5097169;28;20269;-81
2023/12/09 14:22:26;;;;;;;5.57;3.40;;;;;;;;;;5094206;28;20200;-81
2023/12/09 14:24:55;;;;;;;5.00;2.95;;;;;;;;;;5090695;28;20245;-81
2023/12/09 14:27:23;;;;;;;4.93;3.17;;;;;;;;;;5093824;28;20221;-82
2023/12/09 14:29:50;;;;;;;2.42;2.15;;;;;;;;;;5081412;28;20221;-81
2023/12/09 14:32:18;;;;;;;3.30;2.47;;;;;;;;;;5088856;28;20254;-82
2023/12/09 14:34:46;;;;;;;2.53;2.20;;;;;;;;;;5079020;28;20205;-81
2023/12/09 14:37:14;;;;;;;4.10;2.17;;;;;;;;;;5085649;28;20299;-81
2023/12/09 14:39:41;;;;;;;2.90;2.20;;;;;;;;;;5082023;28;20304;-80
2023/12/09 14:42:10;;;;;;;1.95;1.85;;;;;;;;;;5078966;28;20204;-82
2023/12/09 14:44:38;;;;;;;4.15;2.83;;;;;;;;;;5078461;28;20698;-81
2023/12/09 14:47:06;;;;;;;3.67;2.17;;;;;;;;;;5086318;28;20277;-80
2023/12/09 14:49:33;;;;;;;1.95;1.85;;;;;;;;;;5098567;28;20620;-81